sensor_id;sensor_type;location;lat;lon;timestamp;temperature;humidity
42365;DHT22;28498;54.400;18.566;2023-09-18T00:00:47;16.40;99.90
42365;DHT22;28498;54.400;18.566;2023-09-18T00:03:18;16.50;99.90
42365;DHT22;28498;54.400;18.566;2023-09-18T00:05:47;16.60;99.90
42365;DHT22;28498;54.400;18.566;2023-09-18T00:08:15;16.50;99.90
42365;DHT22;28498;54.400;18.566;2023-09-18T00:10:46;16.40;99.90
42365;DHT22;28498;54.400;18.566;2023-09-18T00:13:14;16.40;99.90
42365;DHT22;28498;54.400;18.566;2023-09-18T00:15:41;16.30;99.90
42365;DHT22;28498;54.400;18.566;2023-09-18T00:18:10;16.30;99.90
42365;DHT22;28498;54.400;18.566;2023-09-18T00:20:37;16.30;99.90
42365;DHT22;28498;54.400;18.566;2023-09-18T00:23:04;16.30;99.90
42365;DHT22;28498;54.400;18.566;2023-09-18T00:25:32;16.40;99.90
42365;DHT22;28498;54.400;18.566;2023-09-18T00:27:59;16.30;99.90
42365;DHT22;28498;54.400;18.566;2023-09-18T00:30:26;16.30;99.90
42365;DHT22;28498;54.400;18.566;2023-09-18T00:32:53;16.30;99.90
42365;DHT22;28498;54.400;18.566;2023-09-18T00:35:20;16.30;99.90
42365;DHT22;28498;54.400;18.566;2023-09-18T00:37:49;16.30;99.90
42365;DHT22;28498;54.400;18.566;2023-09-18T00:40:16;16.20;99.90
42365;DHT22;28498;54.400;18.566;2023-09-18T00:42:43;16.20;99.90
42365;DHT22;28498;54.400;18.566;2023-09-18T00:45:10;16.10;99.90
42365;DHT22;28498;54.400;18.566;2023-09-18T00:47:37;16.00;99.90
42365;DHT22;28498;54.400;18.566;2023-09-18T00:50:05;16.00;99.90
42365;DHT22;28498;54.400;18.566;2023-09-18T00:52:34;15.90;99.90
42365;DHT22;28498;54.400;18.566;2023-09-18T00:55:01;15.90;99.90
42365;DHT22;28498;54.400;18.566;2023-09-18T00:57:29;15.90;99.90
42365;DHT22;28498;54.400;18.566;2023-09-18T00:59:56;15.90;99.90
42365;DHT22;28498;54.400;18.566;2023-09-18T01:02:23;15.90;99.90
42365;DHT22;28498;54.400;18.566;2023-09-18T01:04:50;15.80;99.90
42365;DHT22;28498;54.400;18.566;2023-09-18T01:07:17;15.80;99.90
42365;DHT22;28498;54.400;18.566;2023-09-18T01:09:44;15.90;99.90
42365;DHT22;28498;54.400;18.566;2023-09-18T01:12:33;15.80;99.90
42365;DHT22;28498;54.400;18.566;2023-09-18T01:15:11;15.70;99.90
42365;DHT22;28498;54.400;18.566;2023-09-18T01:17:39;15.70;99.90
42365;DHT22;28498;54.400;18.566;2023-09-18T01:20:11;15.70;99.90
42365;DHT22;28498;54.400;18.566;2023-09-18T01:22:38;15.80;99.90
42365;DHT22;28498;54.400;18.566;2023-09-18T01:25:06;15.80;99.90
42365;DHT22;28498;54.400;18.566;2023-09-18T01:27:34;15.70;99.90
42365;DHT22;28498;54.400;18.566;2023-09-18T01:30:02;15.60;99.90
42365;DHT22;28498;54.400;18.566;2023-09-18T01:32:31;15.60;99.90
42365;DHT22;28498;54.400;18.566;2023-09-18T01:35:00;15.60;99.90
42365;DHT22;28498;54.400;18.566;2023-09-18T01:41:16;15.60;99.90
42365;DHT22;28498;54.400;18.566;2023-09-18T01:43:43;15.60;99.90
42365;DHT22;28498;54.400;18.566;2023-09-18T01:46:11;15.70;99.90
42365;DHT22;28498;54.400;18.566;2023-09-18T01:48:39;15.60;99.90
42365;DHT22;28498;54.400;18.566;2023-09-18T01:51:14;15.70;99.90
42365;DHT22;28498;54.400;18.566;2023-09-18T01:53:43;15.60;99.90
42365;DHT22;28498;54.400;18.566;2023-09-18T01:56:10;15.60;99.90
42365;DHT22;28498;54.400;18.566;2023-09-18T01:58:37;15.50;99.90
42365;DHT22;28498;54.400;18.566;2023-09-18T02:01:04;15.50;99.90
42365;DHT22;28498;54.400;18.566;2023-09-18T02:03:31;15.40;99.90
42365;DHT22;28498;54.400;18.566;2023-09-18T02:06:18;15.40;99.90
42365;DHT22;28498;54.400;18.566;2023-09-18T02:08:45;15.40;99.90
42365;DHT22;28498;54.400;18.566;2023-09-18T02:11:13;15.40;99.90
42365;DHT22;28498;54.400;18.566;2023-09-18T02:13:40;15.30;99.90
42365;DHT22;28498;54.400;18.566;2023-09-18T02:16:07;15.20;99.90
42365;DHT22;28498;54.400;18.566;2023-09-18T02:18:34;15.40;99.90
42365;DHT22;28498;54.400;18.566;2023-09-18T02:21:00;15.50;99.90
42365;DHT22;28498;54.400;18.566;2023-09-18T02:23:27;15.50;99.90
42365;DHT22;28498;54.400;18.566;2023-09-18T02:25:58;15.60;99.90
42365;DHT22;28498;54.400;18.566;2023-09-18T02:28:25;15.50;99.90
42365;DHT22;28498;54.400;18.566;2023-09-18T02:30:52;15.40;99.90
42365;DHT22;28498;54.400;18.566;2023-09-18T02:33:19;15.30;99.90
42365;DHT22;28498;54.400;18.566;2023-09-18T02:35:47;15.30;99.90
42365;DHT22;28498;54.400;18.566;2023-09-18T02:38:14;15.20;99.90
42365;DHT22;28498;54.400;18.566;2023-09-18T02:40:41;15.10;99.90
42365;DHT22;28498;54.400;18.566;2023-09-18T02:43:08;15.10;99.90
42365;DHT22;28498;54.400;18.566;2023-09-18T02:45:35;15.00;99.90
42365;DHT22;28498;54.400;18.566;2023-09-18T02:48:02;14.90;99.90
42365;DHT22;28498;54.400;18.566;2023-09-18T02:50:29;14.90;99.90
42365;DHT22;28498;54.400;18.566;2023-09-18T02:52:56;15.00;99.90
42365;DHT22;28498;54.400;18.566;2023-09-18T02:55:23;15.00;99.90
42365;DHT22;28498;54.400;18.566;2023-09-18T02:57:50;14.90;99.90
42365;DHT22;28498;54.400;18.566;2023-09-18T03:00:17;14.90;99.90
42365;DHT22;28498;54.400;18.566;2023-09-18T03:02:58;14.80;99.90
42365;DHT22;28498;54.400;18.566;2023-09-18T03:05:26;14.70;99.90
42365;DHT22;28498;54.400;18.566;2023-09-18T03:07:53;14.60;99.90
42365;DHT22;28498;54.400;18.566;2023-09-18T03:10:20;14.60;99.90
42365;DHT22;28498;54.400;18.566;2023-09-18T03:12:48;14.60;99.90
42365;DHT22;28498;54.400;18.566;2023-09-18T03:15:15;14.60;99.90
42365;DHT22;28498;54.400;18.566;2023-09-18T03:17:42;14.60;99.90
42365;DHT22;28498;54.400;18.566;2023-09-18T03:20:10;14.50;99.90
42365;DHT22;28498;54.400;18.566;2023-09-18T03:22:37;14.50;99.90
42365;DHT22;28498;54.400;18.566;2023-09-18T03:25:04;14.40;99.90
42365;DHT22;28498;54.400;18.566;2023-09-18T03:27:31;14.40;99.90
42365;DHT22;28498;54.400;18.566;2023-09-18T03:29:58;14.40;99.90
42365;DHT22;28498;54.400;18.566;2023-09-18T03:32:25;14.30;99.90
42365;DHT22;28498;54.400;18.566;2023-09-18T03:34:53;14.30;99.90
42365;DHT22;28498;54.400;18.566;2023-09-18T03:37:20;14.30;99.90
42365;DHT22;28498;54.400;18.566;2023-09-18T03:39:47;14.30;99.90
42365;DHT22;28498;54.400;18.566;2023-09-18T03:42:14;14.30;99.90
42365;DHT22;28498;54.400;18.566;2023-09-18T03:44:41;14.30;99.90
42365;DHT22;28498;54.400;18.566;2023-09-18T03:47:08;14.30;99.90
42365;DHT22;28498;54.400;18.566;2023-09-18T03:49:35;14.30;99.90
42365;DHT22;28498;54.400;18.566;2023-09-18T03:52:02;14.20;99.90
42365;DHT22;28498;54.400;18.566;2023-09-18T03:54:29;14.10;99.90
42365;DHT22;28498;54.400;18.566;2023-09-18T03:56:56;14.20;99.90
42365;DHT22;28498;54.400;18.566;2023-09-18T03:59:23;14.20;99.90
42365;DHT22;28498;54.400;18.566;2023-09-18T04:01:51;14.30;99.90
42365;DHT22;28498;54.400;18.566;2023-09-18T04:04:18;14.10;99.90
42365;DHT22;28498;54.400;18.566;2023-09-18T04:06:45;14.20;99.90
42365;DHT22;28498;54.400;18.566;2023-09-18T04:09:13;14.20;99.90
42365;DHT22;28498;54.400;18.566;2023-09-18T04:11:41;14.10;99.90
42365;DHT22;28498;54.400;18.566;2023-09-18T04:14:09;14.10;99.90
42365;DHT22;28498;54.400;18.566;2023-09-18T04:16:36;14.10;99.90
42365;DHT22;28498;54.400;18.566;2023-09-18T04:19:03;14.00;99.90
42365;DHT22;28498;54.400;18.566;2023-09-18T04:21:31;14.00;99.90
42365;DHT22;28498;54.400;18.566;2023-09-18T04:23:58;14.00;99.90
42365;DHT22;28498;54.400;18.566;2023-09-18T04:26:25;14.00;99.90
42365;DHT22;28498;54.400;18.566;2023-09-18T04:28:57;14.10;99.90
42365;DHT22;28498;54.400;18.566;2023-09-18T04:31:24;14.10;99.90
42365;DHT22;28498;54.400;18.566;2023-09-18T04:33:51;14.10;99.90
42365;DHT22;28498;54.400;18.566;2023-09-18T04:36:19;14.10;99.90
42365;DHT22;28498;54.400;18.566;2023-09-18T04:38:46;14.10;99.90
42365;DHT22;28498;54.400;18.566;2023-09-18T04:41:14;14.10;99.90
42365;DHT22;28498;54.400;18.566;2023-09-18T04:47:28;14.10;99.90
42365;DHT22;28498;54.400;18.566;2023-09-18T04:49:55;14.10;99.90
42365;DHT22;28498;54.400;18.566;2023-09-18T04:52:22;14.10;99.90
42365;DHT22;28498;54.400;18.566;2023-09-18T04:54:49;14.10;99.90
42365;DHT22;28498;54.400;18.566;2023-09-18T04:57:16;14.10;99.90
42365;DHT22;28498;54.400;18.566;2023-09-18T04:59:45;14.10;99.90
42365;DHT22;28498;54.400;18.566;2023-09-18T05:02:12;14.10;99.90
42365;DHT22;28498;54.400;18.566;2023-09-18T05:04:39;14.20;99.90
42365;DHT22;28498;54.400;18.566;2023-09-18T05:07:06;14.30;99.90
42365;DHT22;28498;54.400;18.566;2023-09-18T05:09:33;14.30;99.90
42365;DHT22;28498;54.400;18.566;2023-09-18T05:12:05;14.40;99.90
42365;DHT22;28498;54.400;18.566;2023-09-18T05:14:35;14.50;99.90
42365;DHT22;28498;54.400;18.566;2023-09-18T05:17:02;14.60;99.90
42365;DHT22;28498;54.400;18.566;2023-09-18T05:19:29;14.70;99.90
42365;DHT22;28498;54.400;18.566;2023-09-18T05:21:56;14.70;99.90
42365;DHT22;28498;54.400;18.566;2023-09-18T05:24:23;14.80;99.90
42365;DHT22;28498;54.400;18.566;2023-09-18T05:26:54;14.90;99.90
42365;DHT22;28498;54.400;18.566;2023-09-18T05:29:21;14.90;99.90
42365;DHT22;28498;54.400;18.566;2023-09-18T05:31:48;14.90;99.90
42365;DHT22;28498;54.400;18.566;2023-09-18T05:34:15;15.00;99.90
42365;DHT22;28498;54.400;18.566;2023-09-18T05:36:42;15.10;99.90
42365;DHT22;28498;54.400;18.566;2023-09-18T05:39:09;15.20;99.90
42365;DHT22;28498;54.400;18.566;2023-09-18T05:41:40;15.30;99.90
42365;DHT22;28498;54.400;18.566;2023-09-18T05:44:07;15.40;99.90
42365;DHT22;28498;54.400;18.566;2023-09-18T05:46:35;15.50;99.90
42365;DHT22;28498;54.400;18.566;2023-09-18T05:49:02;15.60;99.90
42365;DHT22;28498;54.400;18.566;2023-09-18T05:51:30;15.70;99.90
42365;DHT22;28498;54.400;18.566;2023-09-18T05:53:57;15.80;99.90
42365;DHT22;28498;54.400;18.566;2023-09-18T05:56:25;16.00;99.90
42365;DHT22;28498;54.400;18.566;2023-09-18T05:58:52;16.20;99.90
42365;DHT22;28498;54.400;18.566;2023-09-18T06:01:20;16.40;99.90
42365;DHT22;28498;54.400;18.566;2023-09-18T06:03:47;16.50;99.90
42365;DHT22;28498;54.400;18.566;2023-09-18T06:06:14;16.60;99.90
42365;DHT22;28498;54.400;18.566;2023-09-18T06:08:41;16.80;99.90
42365;DHT22;28498;54.400;18.566;2023-09-18T06:11:08;16.90;99.90
42365;DHT22;28498;54.400;18.566;2023-09-18T06:13:35;16.90;99.90
42365;DHT22;28498;54.400;18.566;2023-09-18T06:16:04;17.00;99.90
42365;DHT22;28498;54.400;18.566;2023-09-18T06:18:34;17.10;99.90
42365;DHT22;28498;54.400;18.566;2023-09-18T06:21:03;17.20;99.90
42365;DHT22;28498;54.400;18.566;2023-09-18T06:23:30;17.20;99.90
42365;DHT22;28498;54.400;18.566;2023-09-18T06:25:57;17.30;99.90
42365;DHT22;28498;54.400;18.566;2023-09-18T06:28:25;17.30;99.90
42365;DHT22;28498;54.400;18.566;2023-09-18T06:30:53;17.40;99.90
42365;DHT22;28498;54.400;18.566;2023-09-18T06:33:21;17.50;99.90
42365;DHT22;28498;54.400;18.566;2023-09-18T06:35:48;17.70;99.90
42365;DHT22;28498;54.400;18.566;2023-09-18T06:38:15;17.70;99.90
42365;DHT22;28498;54.400;18.566;2023-09-18T06:40:42;17.80;99.90
42365;DHT22;28498;54.400;18.566;2023-09-18T06:43:09;17.90;99.90
42365;DHT22;28498;54.400;18.566;2023-09-18T06:45:36;17.90;99.90
42365;DHT22;28498;54.400;18.566;2023-09-18T06:48:05;18.10;99.90
42365;DHT22;28498;54.400;18.566;2023-09-18T06:50:32;18.00;99.90
42365;DHT22;28498;54.400;18.566;2023-09-18T06:53:00;18.10;99.90
42365;DHT22;28498;54.400;18.566;2023-09-18T06:55:27;18.20;99.90
42365;DHT22;28498;54.400;18.566;2023-09-18T06:57:54;18.30;99.90
42365;DHT22;28498;54.400;18.566;2023-09-18T07:00:21;18.40;99.90
42365;DHT22;28498;54.400;18.566;2023-09-18T07:02:48;18.40;99.90
42365;DHT22;28498;54.400;18.566;2023-09-18T07:05:17;18.50;99.90
42365;DHT22;28498;54.400;18.566;2023-09-18T07:07:44;18.50;99.90
42365;DHT22;28498;54.400;18.566;2023-09-18T07:10:11;18.60;99.90
42365;DHT22;28498;54.400;18.566;2023-09-18T07:12:38;18.60;99.90
42365;DHT22;28498;54.400;18.566;2023-09-18T07:15:06;18.60;99.90
42365;DHT22;28498;54.400;18.566;2023-09-18T07:17:33;18.70;99.90
42365;DHT22;28498;54.400;18.566;2023-09-18T07:20:02;18.70;99.90
42365;DHT22;28498;54.400;18.566;2023-09-18T07:22:45;18.80;99.90
42365;DHT22;28498;54.400;18.566;2023-09-18T07:25:13;18.80;99.90
42365;DHT22;28498;54.400;18.566;2023-09-18T07:27:40;19.00;99.90
42365;DHT22;28498;54.400;18.566;2023-09-18T07:30:11;19.00;99.90
42365;DHT22;28498;54.400;18.566;2023-09-18T07:32:42;19.10;99.90
42365;DHT22;28498;54.400;18.566;2023-09-18T07:35:10;19.10;99.90
42365;DHT22;28498;54.400;18.566;2023-09-18T07:37:37;19.10;99.90
42365;DHT22;28498;54.400;18.566;2023-09-18T07:40:07;19.20;99.90
42365;DHT22;28498;54.400;18.566;2023-09-18T07:42:34;19.20;99.90
42365;DHT22;28498;54.400;18.566;2023-09-18T07:45:02;19.30;99.90
42365;DHT22;28498;54.400;18.566;2023-09-18T07:47:29;19.40;99.90
42365;DHT22;28498;54.400;18.566;2023-09-18T07:49:58;19.60;99.90
42365;DHT22;28498;54.400;18.566;2023-09-18T07:52:25;19.70;99.90
42365;DHT22;28498;54.400;18.566;2023-09-18T07:54:52;19.80;99.90
42365;DHT22;28498;54.400;18.566;2023-09-18T07:57:19;20.00;99.90
42365;DHT22;28498;54.400;18.566;2023-09-18T07:59:47;20.00;99.90
42365;DHT22;28498;54.400;18.566;2023-09-18T08:02:14;20.10;99.90
42365;DHT22;28498;54.400;18.566;2023-09-18T08:04:41;20.20;99.90
42365;DHT22;28498;54.400;18.566;2023-09-18T08:07:09;20.30;99.90
42365;DHT22;28498;54.400;18.566;2023-09-18T08:09:37;20.30;99.90
42365;DHT22;28498;54.400;18.566;2023-09-18T08:12:04;20.30;99.90
42365;DHT22;28498;54.400;18.566;2023-09-18T08:14:31;20.40;99.90
42365;DHT22;28498;54.400;18.566;2023-09-18T08:17:00;20.60;99.90
42365;DHT22;28498;54.400;18.566;2023-09-18T08:19:27;20.70;99.90
42365;DHT22;28498;54.400;18.566;2023-09-18T08:21:54;20.80;99.90
42365;DHT22;28498;54.400;18.566;2023-09-18T08:24:23;20.90;99.90
42365;DHT22;28498;54.400;18.566;2023-09-18T08:26:50;21.00;99.90
42365;DHT22;28498;54.400;18.566;2023-09-18T08:29:17;21.10;99.90
42365;DHT22;28498;54.400;18.566;2023-09-18T08:31:44;21.20;99.90
42365;DHT22;28498;54.400;18.566;2023-09-18T08:34:12;21.30;99.90
42365;DHT22;28498;54.400;18.566;2023-09-18T08:36:39;21.30;99.90
42365;DHT22;28498;54.400;18.566;2023-09-18T08:39:06;21.40;99.90
42365;DHT22;28498;54.400;18.566;2023-09-18T08:41:38;21.60;99.90
42365;DHT22;28498;54.400;18.566;2023-09-18T08:44:07;21.60;99.90
42365;DHT22;28498;54.400;18.566;2023-09-18T08:46:39;21.70;99.90
42365;DHT22;28498;54.400;18.566;2023-09-18T08:49:07;21.60;99.90
42365;DHT22;28498;54.400;18.566;2023-09-18T08:51:35;21.80;99.90
42365;DHT22;28498;54.400;18.566;2023-09-18T08:54:04;22.00;99.90
42365;DHT22;28498;54.400;18.566;2023-09-18T08:56:32;21.90;99.90
42365;DHT22;28498;54.400;18.566;2023-09-18T08:59:00;21.90;99.90
42365;DHT22;28498;54.400;18.566;2023-09-18T09:01:27;22.00;99.90
42365;DHT22;28498;54.400;18.566;2023-09-18T09:03:54;22.10;99.90
42365;DHT22;28498;54.400;18.566;2023-09-18T09:06:22;22.20;99.90
42365;DHT22;28498;54.400;18.566;2023-09-18T09:08:50;22.20;99.90
42365;DHT22;28498;54.400;18.566;2023-09-18T09:11:17;22.20;99.90
42365;DHT22;28498;54.400;18.566;2023-09-18T09:13:46;22.20;99.90
42365;DHT22;28498;54.400;18.566;2023-09-18T09:16:13;22.20;99.90
42365;DHT22;28498;54.400;18.566;2023-09-18T09:18:50;22.20;99.90
42365;DHT22;28498;54.400;18.566;2023-09-18T09:21:19;22.20;99.90
42365;DHT22;28498;54.400;18.566;2023-09-18T09:23:53;22.40;99.90
42365;DHT22;28498;54.400;18.566;2023-09-18T09:26:22;22.40;99.90
42365;DHT22;28498;54.400;18.566;2023-09-18T09:28:50;22.40;99.90
42365;DHT22;28498;54.400;18.566;2023-09-18T09:31:25;22.40;99.90
42365;DHT22;28498;54.400;18.566;2023-09-18T09:33:55;22.40;99.90
42365;DHT22;28498;54.400;18.566;2023-09-18T09:36:26;22.60;99.90
42365;DHT22;28498;54.400;18.566;2023-09-18T09:38:57;22.70;99.90
42365;DHT22;28498;54.400;18.566;2023-09-18T09:41:31;22.60;99.90
42365;DHT22;28498;54.400;18.566;2023-09-18T09:43:58;22.80;99.90
42365;DHT22;28498;54.400;18.566;2023-09-18T09:46:25;22.90;99.90
42365;DHT22;28498;54.400;18.566;2023-09-18T09:49:04;23.00;99.90
42365;DHT22;28498;54.400;18.566;2023-09-18T09:51:32;23.00;99.90
42365;DHT22;28498;54.400;18.566;2023-09-18T09:54:01;23.10;99.90
42365;DHT22;28498;54.400;18.566;2023-09-18T09:56:47;23.20;99.90
42365;DHT22;28498;54.400;18.566;2023-09-18T09:59:15;23.40;99.90
42365;DHT22;28498;54.400;18.566;2023-09-18T10:01:48;23.30;99.90
42365;DHT22;28498;54.400;18.566;2023-09-18T10:04:18;23.40;99.90
42365;DHT22;28498;54.400;18.566;2023-09-18T10:06:56;23.60;99.90
42365;DHT22;28498;54.400;18.566;2023-09-18T10:09:27;23.70;99.90
42365;DHT22;28498;54.400;18.566;2023-09-18T10:11:56;23.70;99.90
42365;DHT22;28498;54.400;18.566;2023-09-18T10:14:33;23.80;99.90
42365;DHT22;28498;54.400;18.566;2023-09-18T10:17:25;23.80;99.90
42365;DHT22;28498;54.400;18.566;2023-09-18T10:20:06;24.00;99.90
42365;DHT22;28498;54.400;18.566;2023-09-18T10:22:39;24.20;99.90
42365;DHT22;28498;54.400;18.566;2023-09-18T10:25:11;24.10;99.90
42365;DHT22;28498;54.400;18.566;2023-09-18T10:27:40;24.30;99.90
42365;DHT22;28498;54.400;18.566;2023-09-18T10:30:09;24.30;99.90
42365;DHT22;28498;54.400;18.566;2023-09-18T10:32:40;24.40;99.90
42365;DHT22;28498;54.400;18.566;2023-09-18T10:35:07;24.50;99.90
42365;DHT22;28498;54.400;18.566;2023-09-18T10:37:36;24.50;99.90
42365;DHT22;28498;54.400;18.566;2023-09-18T10:40:08;24.50;99.90
42365;DHT22;28498;54.400;18.566;2023-09-18T10:42:40;24.50;99.90
42365;DHT22;28498;54.400;18.566;2023-09-18T10:45:09;24.60;99.90
42365;DHT22;28498;54.400;18.566;2023-09-18T10:47:39;24.80;99.90
42365;DHT22;28498;54.400;18.566;2023-09-18T10:50:09;24.80;99.90
42365;DHT22;28498;54.400;18.566;2023-09-18T10:52:43;24.80;99.90
42365;DHT22;28498;54.400;18.566;2023-09-18T10:55:14;24.90;99.90
42365;DHT22;28498;54.400;18.566;2023-09-18T10:57:55;25.00;99.90
42365;DHT22;28498;54.400;18.566;2023-09-18T11:00:25;25.00;99.90
42365;DHT22;28498;54.400;18.566;2023-09-18T11:03:15;25.00;99.90
42365;DHT22;28498;54.400;18.566;2023-09-18T11:05:47;25.20;99.90
42365;DHT22;28498;54.400;18.566;2023-09-18T11:08:49;25.00;99.90
42365;DHT22;28498;54.400;18.566;2023-09-18T11:11:18;24.90;99.90
42365;DHT22;28498;54.400;18.566;2023-09-18T11:13:48;25.10;99.90
42365;DHT22;28498;54.400;18.566;2023-09-18T11:16:33;25.50;99.90
42365;DHT22;28498;54.400;18.566;2023-09-18T11:19:11;25.70;99.90
42365;DHT22;28498;54.400;18.566;2023-09-18T11:21:39;26.00;99.90
42365;DHT22;28498;54.400;18.566;2023-09-18T11:24:08;26.10;99.90
42365;DHT22;28498;54.400;18.566;2023-09-18T11:26:44;26.30;99.90
42365;DHT22;28498;54.400;18.566;2023-09-18T11:29:15;26.40;99.90
42365;DHT22;28498;54.400;18.566;2023-09-18T11:31:53;26.30;99.90
42365;DHT22;28498;54.400;18.566;2023-09-18T11:36:50;26.10;99.90
42365;DHT22;28498;54.400;18.566;2023-09-18T11:39:36;26.20;99.90
42365;DHT22;28498;54.400;18.566;2023-09-18T11:42:17;26.30;99.90
42365;DHT22;28498;54.400;18.566;2023-09-18T11:44:45;26.40;99.90
42365;DHT22;28498;54.400;18.566;2023-09-18T11:47:24;26.60;99.90
42365;DHT22;28498;54.400;18.566;2023-09-18T11:49:57;26.40;99.90
42365;DHT22;28498;54.400;18.566;2023-09-18T11:52:26;26.30;99.60
42365;DHT22;28498;54.400;18.566;2023-09-18T11:54:55;26.30;99.90
42365;DHT22;28498;54.400;18.566;2023-09-18T11:57:22;26.40;99.90
42365;DHT22;28498;54.400;18.566;2023-09-18T11:59:50;26.40;99.90
42365;DHT22;28498;54.400;18.566;2023-09-18T12:02:28;26.50;98.30
42365;DHT22;28498;54.400;18.566;2023-09-18T12:05:15;26.50;99.90
42365;DHT22;28498;54.400;18.566;2023-09-18T12:07:46;26.50;99.90
42365;DHT22;28498;54.400;18.566;2023-09-18T12:10:18;26.40;98.00
42365;DHT22;28498;54.400;18.566;2023-09-18T12:12:45;26.20;99.90
42365;DHT22;28498;54.400;18.566;2023-09-18T12:15:14;26.10;99.90
42365;DHT22;28498;54.400;18.566;2023-09-18T12:17:42;26.00;99.90
42365;DHT22;28498;54.400;18.566;2023-09-18T12:20:18;26.00;99.90
42365;DHT22;28498;54.400;18.566;2023-09-18T12:22:49;26.20;99.90
42365;DHT22;28498;54.400;18.566;2023-09-18T12:25:20;26.40;99.90
42365;DHT22;28498;54.400;18.566;2023-09-18T12:27:54;26.20;99.90
42365;DHT22;28498;54.400;18.566;2023-09-18T12:30:22;26.20;99.10
42365;DHT22;28498;54.400;18.566;2023-09-18T12:32:51;25.90;97.50
42365;DHT22;28498;54.400;18.566;2023-09-18T12:35:19;25.90;99.40
42365;DHT22;28498;54.400;18.566;2023-09-18T12:37:46;25.80;98.00
42365;DHT22;28498;54.400;18.566;2023-09-18T12:40:29;26.10;98.10
42365;DHT22;28498;54.400;18.566;2023-09-18T12:42:57;26.40;98.70
42365;DHT22;28498;54.400;18.566;2023-09-18T12:45:25;26.30;97.90
42365;DHT22;28498;54.400;18.566;2023-09-18T12:47:55;26.20;96.00
42365;DHT22;28498;54.400;18.566;2023-09-18T12:50:25;26.20;97.00
42365;DHT22;28498;54.400;18.566;2023-09-18T12:52:52;26.30;95.90
42365;DHT22;28498;54.400;18.566;2023-09-18T12:55:26;26.40;94.50
42365;DHT22;28498;54.400;18.566;2023-09-18T12:57:54;26.40;94.30
42365;DHT22;28498;54.400;18.566;2023-09-18T13:00:23;26.40;94.40
42365;DHT22;28498;54.400;18.566;2023-09-18T13:02:50;26.30;95.70
42365;DHT22;28498;54.400;18.566;2023-09-18T13:05:23;26.40;97.60
42365;DHT22;28498;54.400;18.566;2023-09-18T13:07:54;26.50;95.40
42365;DHT22;28498;54.400;18.566;2023-09-18T13:10:22;26.40;93.70
42365;DHT22;28498;54.400;18.566;2023-09-18T13:12:54;26.20;93.80
42365;DHT22;28498;54.400;18.566;2023-09-18T13:15:32;26.20;94.40
42365;DHT22;28498;54.400;18.566;2023-09-18T13:18:01;26.40;92.30
42365;DHT22;28498;54.400;18.566;2023-09-18T13:20:35;26.40;92.30
42365;DHT22;28498;54.400;18.566;2023-09-18T13:23:03;26.50;91.20
42365;DHT22;28498;54.400;18.566;2023-09-18T13:25:35;26.60;90.80
42365;DHT22;28498;54.400;18.566;2023-09-18T13:28:06;26.70;88.60
42365;DHT22;28498;54.400;18.566;2023-09-18T13:30:35;26.70;89.40
42365;DHT22;28498;54.400;18.566;2023-09-18T13:35:32;26.60;90.50
42365;DHT22;28498;54.400;18.566;2023-09-18T13:37:59;26.60;90.80
42365;DHT22;28498;54.400;18.566;2023-09-18T13:40:26;26.70;89.90
42365;DHT22;28498;54.400;18.566;2023-09-18T13:42:54;26.60;90.00
42365;DHT22;28498;54.400;18.566;2023-09-18T13:45:21;26.70;87.80
42365;DHT22;28498;54.400;18.566;2023-09-18T13:47:48;27.00;88.70
42365;DHT22;28498;54.400;18.566;2023-09-18T13:50:16;27.10;87.70
42365;DHT22;28498;54.400;18.566;2023-09-18T13:52:43;26.90;85.90
42365;DHT22;28498;54.400;18.566;2023-09-18T13:55:10;26.80;85.40
42365;DHT22;28498;54.400;18.566;2023-09-18T13:57:37;26.80;84.30
42365;DHT22;28498;54.400;18.566;2023-09-18T14:00:07;26.80;85.60
42365;DHT22;28498;54.400;18.566;2023-09-18T14:02:38;26.80;84.20
42365;DHT22;28498;54.400;18.566;2023-09-18T14:05:07;26.70;85.20
42365;DHT22;28498;54.400;18.566;2023-09-18T14:07:35;26.70;86.30
42365;DHT22;28498;54.400;18.566;2023-09-18T14:10:02;26.70;85.80
42365;DHT22;28498;54.400;18.566;2023-09-18T14:12:33;26.60;85.20
42365;DHT22;28498;54.400;18.566;2023-09-18T14:15:00;26.60;85.80
42365;DHT22;28498;54.400;18.566;2023-09-18T14:17:27;26.70;86.10
42365;DHT22;28498;54.400;18.566;2023-09-18T14:19:54;26.70;85.50
42365;DHT22;28498;54.400;18.566;2023-09-18T14:22:21;26.80;86.00
42365;DHT22;28498;54.400;18.566;2023-09-18T14:24:48;26.80;85.10
42365;DHT22;28498;54.400;18.566;2023-09-18T14:27:16;26.80;84.80
42365;DHT22;28498;54.400;18.566;2023-09-18T14:29:43;26.80;85.10
42365;DHT22;28498;54.400;18.566;2023-09-18T14:32:11;26.90;84.80
42365;DHT22;28498;54.400;18.566;2023-09-18T14:34:38;27.00;84.10
42365;DHT22;28498;54.400;18.566;2023-09-18T14:37:05;27.10;84.10
42365;DHT22;28498;54.400;18.566;2023-09-18T14:39:33;27.20;83.40
42365;DHT22;28498;54.400;18.566;2023-09-18T14:42:00;27.70;82.80
42365;DHT22;28498;54.400;18.566;2023-09-18T14:44:28;28.20;81.70
42365;DHT22;28498;54.400;18.566;2023-09-18T14:46:55;28.40;78.00
42365;DHT22;28498;54.400;18.566;2023-09-18T14:49:22;28.50;77.90
42365;DHT22;28498;54.400;18.566;2023-09-18T14:51:49;28.40;77.50
42365;DHT22;28498;54.400;18.566;2023-09-18T14:54:20;28.10;78.40
42365;DHT22;28498;54.400;18.566;2023-09-18T14:56:47;27.70;78.10
42365;DHT22;28498;54.400;18.566;2023-09-18T14:59:14;27.80;79.20
42365;DHT22;28498;54.400;18.566;2023-09-18T15:01:50;27.50;78.70
42365;DHT22;28498;54.400;18.566;2023-09-18T15:04:17;27.50;79.70
42365;DHT22;28498;54.400;18.566;2023-09-18T15:06:44;27.30;79.90
42365;DHT22;28498;54.400;18.566;2023-09-18T15:09:11;27.00;79.80
42365;DHT22;28498;54.400;18.566;2023-09-18T15:11:39;27.20;80.20
42365;DHT22;28498;54.400;18.566;2023-09-18T15:14:06;26.90;81.30
42365;DHT22;28498;54.400;18.566;2023-09-18T15:16:36;26.70;81.60
42365;DHT22;28498;54.400;18.566;2023-09-18T15:19:03;26.60;82.30
42365;DHT22;28498;54.400;18.566;2023-09-18T15:21:33;26.40;82.90
42365;DHT22;28498;54.400;18.566;2023-09-18T15:24:00;26.20;83.90
42365;DHT22;28498;54.400;18.566;2023-09-18T15:26:27;25.90;85.30
42365;DHT22;28498;54.400;18.566;2023-09-18T15:28:54;25.70;89.00
42365;DHT22;28498;54.400;18.566;2023-09-18T15:31:21;25.60;90.60
42365;DHT22;28498;54.400;18.566;2023-09-18T15:33:48;25.60;91.90
42365;DHT22;28498;54.400;18.566;2023-09-18T15:36:16;25.50;93.70
42365;DHT22;28498;54.400;18.566;2023-09-18T15:38:42;25.40;95.70